createdAt,value
2019-06-15T00:01:48.060Z,90.60
2019-06-15T00:04:18.568Z,90.60
2019-06-15T00:06:49.068Z,90.40
2019-06-15T00:09:19.537Z,90.30
2019-06-15T00:11:50.037Z,90.40
2019-06-15T00:14:20.555Z,90.40
2019-06-15T00:16:51.011Z,90.50
2019-06-15T00:19:21.533Z,90.70
2019-06-15T00:21:52.022Z,91.20
2019-06-15T00:24:34.576Z,90.90
2019-06-15T00:26:54.790Z,90.90
2019-06-15T00:29:25.258Z,91.10
2019-06-15T00:31:55.753Z,91.10
2019-06-15T00:34:26.268Z,90.90
2019-06-15T00:36:56.841Z,91.00
2019-06-15T00:39:27.327Z,91.10
2019-06-15T00:41:57.900Z,91.20
2019-06-15T00:44:29.467Z,91.20
2019-06-15T00:46:59.934Z,91.30
2019-06-15T00:49:30.487Z,91.40
2019-06-15T00:52:01.048Z,91.50
2019-06-15T00:54:31.548Z,91.60
2019-06-15T00:57:02.052Z,91.80
2019-06-15T00:59:32.529Z,91.90
2019-06-15T01:02:03.028Z,92.40
2019-06-15T01:04:33.532Z,92.40
2019-06-15T01:07:04.019Z,92.40
2019-06-15T01:09:34.516Z,92.50
2019-06-15T01:12:05.228Z,92.60
2019-06-15T01:14:35.798Z,92.60
2019-06-15T01:17:06.355Z,92.60
2019-06-15T01:19:36.865Z,92.70
2019-06-15T01:22:07.376Z,92.60
2019-06-15T01:24:37.840Z,92.50
2019-06-15T01:27:08.339Z,92.70
2019-06-15T01:29:38.832Z,93.00
2019-06-15T01:32:09.324Z,93.60
2019-06-15T01:34:39.795Z,94.30
2019-06-15T01:37:10.275Z,94.50
2019-06-15T01:39:40.765Z,94.10
2019-06-15T01:42:11.749Z,93.90
2019-06-15T01:44:42.216Z,93.70
2019-06-15T01:47:12.719Z,93.70
2019-06-15T01:49:43.200Z,93.80
2019-06-15T01:52:13.706Z,93.90
2019-06-15T01:54:44.167Z,93.80
2019-06-15T01:57:15.337Z,93.60
2019-06-15T01:59:45.807Z,93.50
2019-06-15T02:02:16.316Z,93.60
2019-06-15T02:04:46.794Z,93.80
2019-06-15T02:07:17.335Z,94.00
2019-06-15T02:09:47.837Z,94.00
2019-06-15T02:12:18.302Z,94.20
2019-06-15T02:14:48.817Z,94.30
2019-06-15T02:17:19.321Z,94.40
2019-06-15T02:19:49.799Z,94.40
2019-06-15T02:22:20.313Z,94.40
2019-06-15T02:24:50.777Z,94.40
2019-06-15T02:27:21.280Z,94.50
2019-06-15T02:29:51.761Z,94.40
2019-06-15T02:32:22.266Z,94.50
2019-06-15T02:34:52.729Z,94.60
2019-06-15T02:37:23.227Z,95.00
2019-06-15T02:39:53.762Z,95.10
2019-06-15T02:42:24.342Z,95.10
2019-06-15T02:44:54.810Z,95.10
2019-06-15T02:47:25.315Z,95.20
2019-06-15T02:49:55.837Z,95.30
2019-06-15T02:52:26.421Z,95.30
2019-06-15T02:54:56.894Z,95.10
2019-06-15T02:57:27.389Z,95.10
2019-06-15T02:59:57.896Z,95.10
2019-06-15T03:02:28.371Z,95.20
2019-06-15T03:04:58.892Z,95.30
2019-06-15T03:07:29.420Z,95.70
2019-06-15T03:10:00.731Z,95.70
2019-06-15T03:12:31.773Z,95.90
2019-06-15T03:15:02.292Z,96.20
2019-06-15T03:17:32.771Z,96.10
2019-06-15T03:20:04.806Z,95.90
2019-06-15T03:22:35.472Z,96.10
2019-06-15T03:25:26.806Z,95.90
2019-06-15T03:27:57.299Z,96.00
2019-06-15T03:30:27.785Z,96.10
2019-06-15T03:32:58.281Z,96.20
2019-06-15T03:35:28.763Z,96.20
2019-06-15T03:37:59.330Z,96.20
2019-06-15T03:40:29.787Z,96.30
2019-06-15T03:43:00.300Z,96.40
2019-06-15T03:45:30.764Z,96.50
2019-06-15T03:48:01.280Z,96.40
2019-06-15T03:50:31.737Z,96.20
2019-06-15T03:53:02.254Z,96.20
2019-06-15T03:55:32.765Z,96.10
2019-06-15T03:58:03.311Z,96.20
2019-06-15T04:00:45.922Z,96.40
2019-06-15T04:03:16.701Z,96.40
2019-06-15T04:05:47.267Z,96.40
2019-06-15T04:08:17.750Z,96.40
2019-06-15T04:10:48.252Z,96.30
2019-06-15T04:13:18.722Z,96.30
2019-06-15T04:15:49.276Z,96.30
2019-06-15T04:18:19.799Z,96.20
2019-06-15T04:20:50.267Z,96.10
2019-06-15T04:23:20.783Z,96.20
2019-06-15T04:25:51.453Z,96.20
2019-06-15T04:28:22.032Z,96.20
2019-06-15T04:30:52.544Z,96.30
2019-06-15T04:33:23.013Z,96.40
2019-06-15T04:35:53.532Z,96.20
2019-06-15T04:38:24.002Z,96.40
2019-06-15T04:40:54.517Z,96.50
2019-06-15T04:43:25.020Z,96.70
2019-06-15T04:45:55.488Z,96.50
2019-06-15T04:48:25.993Z,96.60
2019-06-15T04:50:56.463Z,96.40
2019-06-15T04:53:26.966Z,96.60
2019-06-15T04:55:57.434Z,96.80
2019-06-15T04:58:27.974Z,97.10
2019-06-15T05:00:58.438Z,97.30
2019-06-15T05:03:28.951Z,97.70
2019-06-15T05:05:59.416Z,97.50
2019-06-15T05:08:29.915Z,97.10
2019-06-15T05:11:03.446Z,97.40
2019-06-15T05:13:32.676Z,97.40
2019-06-15T05:16:03.178Z,97.60
2019-06-15T05:18:33.673Z,97.80
2019-06-15T05:21:04.172Z,97.50
2019-06-15T05:23:34.643Z,97.60
2019-06-15T05:26:05.654Z,97.70
2019-06-15T05:28:36.187Z,97.60
2019-06-15T05:31:06.668Z,97.40
2019-06-15T05:33:37.178Z,97.50
2019-06-15T05:36:07.682Z,97.50
2019-06-15T05:38:38.198Z,97.60
2019-06-15T05:41:09.333Z,97.20
2019-06-15T05:43:45.996Z,97.70
2019-06-15T05:46:16.600Z,97.70
2019-06-15T05:48:47.110Z,97.50
2019-06-15T05:51:17.575Z,97.30
2019-06-15T05:53:48.084Z,97.00
2019-06-15T05:56:18.576Z,96.90
2019-06-15T05:58:49.049Z,97.00
2019-06-15T06:01:19.576Z,97.10
2019-06-15T06:03:50.035Z,97.10
2019-06-15T06:06:20.526Z,97.00
2019-06-15T06:08:51.068Z,97.00
2019-06-15T06:11:21.608Z,97.20
2019-06-15T06:13:52.103Z,97.30
2019-06-15T06:16:22.601Z,96.90
2019-06-15T06:18:53.091Z,96.70
2019-06-15T06:21:23.581Z,96.70
2019-06-15T06:23:54.068Z,96.70
2019-06-15T06:26:24.578Z,96.50
2019-06-15T06:28:57.434Z,96.20
2019-06-15T06:31:27.261Z,95.80
2019-06-15T06:33:57.734Z,95.40
2019-06-15T06:36:29.333Z,95.30
2019-06-15T06:38:59.874Z,95.30
2019-06-15T06:41:31.035Z,95.20
2019-06-15T06:44:01.512Z,95.20
2019-06-15T06:46:33.376Z,95.50
2019-06-15T06:49:03.875Z,95.50
2019-06-15T06:51:34.385Z,95.40
2019-06-15T06:54:05.088Z,95.10
2019-06-15T06:56:35.598Z,95.40
2019-06-15T06:59:06.074Z,95.20
2019-06-15T07:01:36.584Z,95.00
2019-06-15T07:04:07.087Z,95.20
2019-06-15T07:06:37.553Z,95.40
2019-06-15T07:09:08.494Z,95.30
2019-06-15T07:11:38.967Z,95.00
2019-06-15T07:14:09.464Z,94.30
2019-06-15T07:16:40.013Z,94.40
2019-06-15T07:19:10.508Z,94.50
2019-06-15T07:21:40.990Z,94.30
2019-06-15T07:24:11.494Z,94.20
2019-06-15T07:26:41.962Z,94.20
2019-06-15T07:29:12.543Z,94.20
2019-06-15T07:31:43.051Z,94.20
2019-06-15T07:34:14.853Z,94.30
2019-06-15T07:36:45.338Z,94.10
2019-06-15T07:39:15.864Z,94.30
2019-06-15T07:41:46.368Z,94.30
2019-06-15T07:44:16.873Z,94.10
2019-06-15T07:46:47.422Z,94.00
2019-06-15T07:49:17.898Z,93.80
2019-06-15T07:51:48.477Z,93.70
2019-06-15T07:54:18.979Z,93.50
2019-06-15T07:56:49.513Z,93.90
2019-06-15T07:59:20.061Z,93.70
2019-06-15T08:01:50.597Z,93.20
2019-06-15T08:04:21.085Z,93.40
2019-06-15T08:06:51.628Z,93.50
2019-06-15T08:09:22.135Z,93.50
2019-06-15T08:11:52.710Z,93.80
2019-06-15T08:14:23.373Z,93.60
2019-06-15T08:16:54.390Z,93.90
2019-06-15T08:19:24.863Z,93.90
2019-06-15T08:21:55.437Z,93.50
2019-06-15T08:24:25.913Z,94.00
2019-06-15T08:26:56.417Z,93.70
2019-06-15T08:29:26.896Z,93.80
2019-06-15T08:31:57.386Z,94.60
2019-06-15T08:34:28.254Z,94.50
2019-06-15T08:36:58.788Z,94.80
2019-06-15T08:39:29.253Z,94.10
2019-06-15T08:41:59.754Z,94.10
2019-06-15T08:44:30.275Z,94.10
2019-06-15T08:47:00.753Z,93.80
2019-06-15T08:49:31.266Z,93.80
2019-06-15T08:52:04.217Z,94.10
2019-06-15T08:54:33.953Z,94.20
2019-06-15T08:57:04.624Z,94.60
2019-06-15T08:59:35.163Z,94.60
2019-06-15T09:02:05.764Z,94.80
2019-06-15T09:04:36.251Z,94.70
2019-06-15T09:07:06.771Z,94.60
2019-06-15T09:09:37.336Z,94.40
2019-06-15T09:12:07.840Z,94.20
2019-06-15T09:14:38.803Z,94.40
2019-06-15T09:17:09.305Z,94.40
2019-06-15T09:19:39.806Z,94.30
2019-06-15T09:22:10.313Z,94.20
2019-06-15T09:24:40.815Z,93.60
2019-06-15T09:27:11.321Z,93.70
2019-06-15T09:29:41.783Z,93.70
2019-06-15T09:32:12.293Z,90.90
2019-06-15T09:34:42.774Z,91.30
2019-06-15T09:37:13.265Z,91.30
2019-06-15T09:39:43.738Z,91.80
2019-06-15T09:42:14.240Z,91.90
2019-06-15T09:44:45.102Z,91.60
2019-06-15T09:47:15.601Z,91.60
2019-06-15T09:49:46.140Z,90.30
2019-06-15T09:52:16.793Z,90.70
2019-06-15T09:54:47.259Z,90.10
2019-06-15T09:57:17.754Z,89.30
2019-06-15T09:59:48.233Z,89.50
2019-06-15T10:02:18.813Z,90.90
2019-06-15T10:04:49.345Z,90.00
2019-06-15T10:07:19.836Z,89.30
2019-06-15T10:09:50.309Z,88.60
2019-06-15T10:12:20.807Z,89.40
2019-06-15T10:14:51.291Z,89.60
2019-06-15T10:17:21.862Z,86.40
2019-06-15T10:19:52.361Z,86.80
2019-06-15T10:22:22.863Z,86.80
2019-06-15T10:24:53.337Z,86.30
2019-06-15T10:27:23.839Z,86.80
2019-06-15T10:29:54.396Z,85.00
2019-06-15T10:32:24.919Z,83.90
2019-06-15T10:34:56.208Z,82.00
2019-06-15T10:37:26.712Z,80.80
2019-06-15T10:39:58.758Z,79.70
2019-06-15T10:42:29.265Z,78.60
2019-06-15T10:44:59.766Z,78.90
2019-06-15T10:47:30.267Z,77.10
2019-06-15T10:50:00.790Z,77.80
2019-06-15T10:52:31.404Z,74.60
2019-06-15T10:55:02.559Z,74.50
2019-06-15T10:57:33.045Z,74.40
2019-06-15T11:00:09.052Z,76.00
2019-06-15T11:02:41.216Z,74.40
2019-06-15T11:05:15.445Z,73.30
2019-06-15T11:07:45.912Z,70.00
2019-06-15T11:10:23.031Z,70.20
2019-06-15T11:12:53.638Z,68.00
2019-06-15T11:15:24.249Z,65.50
2019-06-15T11:17:54.820Z,65.30
2019-06-15T11:20:25.343Z,63.80
2019-06-15T11:22:55.845Z,63.20
2019-06-15T11:25:26.686Z,60.30
2019-06-15T11:27:57.190Z,59.80
2019-06-15T11:30:27.694Z,58.40
2019-06-15T11:32:58.216Z,57.70
2019-06-15T11:35:28.694Z,56.60
2019-06-15T11:37:59.261Z,55.60
2019-06-15T11:40:29.809Z,55.30
2019-06-15T11:43:00.312Z,54.70
2019-06-15T11:45:32.460Z,52.30
2019-06-15T11:48:02.958Z,52.40
2019-06-15T11:50:33.566Z,51.10
2019-06-15T11:53:04.102Z,49.00
2019-06-15T11:55:39.545Z,48.80
2019-06-15T11:58:06.875Z,48.80
2019-06-15T12:01:02.376Z,48.20
2019-06-15T12:03:32.883Z,47.60
2019-06-15T12:06:03.395Z,46.00
2019-06-15T12:08:33.931Z,44.80
2019-06-15T12:11:04.430Z,44.00
2019-06-15T12:13:34.905Z,43.90
2019-06-15T12:16:05.487Z,45.40
2019-06-15T12:18:35.960Z,43.30
2019-06-15T12:21:06.486Z,42.20
2019-06-15T12:23:37.001Z,43.40
2019-06-15T12:26:07.498Z,43.40
2019-06-15T12:28:38.580Z,42.40
2019-06-15T12:31:09.278Z,40.60
2019-06-15T12:33:39.755Z,40.10
2019-06-15T12:36:18.842Z,41.30
2019-06-15T12:38:42.718Z,39.90
2019-06-15T12:41:13.218Z,39.90
2019-06-15T12:43:43.768Z,38.60
2019-06-15T12:46:14.270Z,38.70
2019-06-15T12:48:44.775Z,39.60
2019-06-15T12:51:15.247Z,39.00
2019-06-15T12:53:45.748Z,38.90
2019-06-15T12:56:16.217Z,39.90
2019-06-15T12:58:46.714Z,39.40
2019-06-15T13:01:17.198Z,39.00
2019-06-15T13:03:47.706Z,39.80
2019-06-15T13:06:18.200Z,39.40
2019-06-15T13:08:48.692Z,39.50
2019-06-15T13:11:19.222Z,38.80
2019-06-15T13:13:49.733Z,37.70
2019-06-15T13:16:20.207Z,37.80
2019-06-15T13:18:51.289Z,38.20
2019-06-15T13:21:21.801Z,39.10
2019-06-15T13:23:52.277Z,39.50
2019-06-15T13:26:22.861Z,38.90
2019-06-15T13:28:53.394Z,38.00
2019-06-15T13:31:23.998Z,40.10
2019-06-15T13:33:54.502Z,40.50
2019-06-15T13:36:25.087Z,37.20
2019-06-15T13:38:55.725Z,38.80
2019-06-15T13:41:26.224Z,39.70
2019-06-15T13:43:56.699Z,40.90
2019-06-15T13:46:27.272Z,41.90
2019-06-15T13:48:57.778Z,42.10
2019-06-15T13:51:28.278Z,43.10
2019-06-15T13:53:58.774Z,42.80
2019-06-15T13:56:29.265Z,43.30
2019-06-15T13:59:00.720Z,43.30
2019-06-15T14:01:34.412Z,43.10
2019-06-15T14:04:03.388Z,43.80
2019-06-15T14:06:33.859Z,43.80
2019-06-15T14:09:06.694Z,45.30
2019-06-15T14:11:37.180Z,45.60
2019-06-15T14:14:07.677Z,46.00
2019-06-15T14:16:39.028Z,46.10
2019-06-15T14:19:09.530Z,46.90
2019-06-15T14:21:40.011Z,46.60
2019-06-15T14:24:10.519Z,47.70
2019-06-15T14:26:41.048Z,48.40
2019-06-15T14:29:11.588Z,47.90
2019-06-15T14:31:50.321Z,48.20
2019-06-15T14:34:14.353Z,49.40
2019-06-15T14:36:44.928Z,49.00
2019-06-15T14:39:15.448Z,49.20
2019-06-15T14:41:49.984Z,47.70
2019-06-15T14:44:18.198Z,48.60
2019-06-15T14:46:48.740Z,47.70
2019-06-15T14:49:19.266Z,47.00
2019-06-15T14:51:51.094Z,47.30
2019-06-15T14:54:21.711Z,47.30
2019-06-15T14:56:52.235Z,46.20
2019-06-15T14:59:22.816Z,45.80
2019-06-15T15:02:09.078Z,45.70
2019-06-15T15:04:26.571Z,46.30
2019-06-15T15:06:57.243Z,46.40
2019-06-15T15:09:28.821Z,47.30
2019-06-15T15:12:00.536Z,48.00
2019-06-15T15:14:31.026Z,48.60
2019-06-15T15:17:01.579Z,49.20
2019-06-15T15:19:32.042Z,50.20
2019-06-15T15:22:02.558Z,50.00
2019-06-15T15:24:33.017Z,49.30
2019-06-15T15:27:03.536Z,48.10
2019-06-15T15:29:35.215Z,49.20
2019-06-15T15:32:07.980Z,50.30
2019-06-15T15:34:38.022Z,50.60
2019-06-15T15:37:09.429Z,50.00
2019-06-15T15:39:39.914Z,50.30
2019-06-15T15:42:10.429Z,49.00
2019-06-15T15:44:40.986Z,48.90
2019-06-15T15:47:11.501Z,48.60
2019-06-15T15:49:43.305Z,48.70
2019-06-15T15:52:13.849Z,48.80
2019-06-15T15:54:46.698Z,49.10
2019-06-15T15:57:17.198Z,49.10
2019-06-15T15:59:47.829Z,49.40
2019-06-15T16:02:18.315Z,49.80
2019-06-15T16:04:48.834Z,50.30
2019-06-15T16:07:20.276Z,51.00
2019-06-15T16:09:50.783Z,49.70
2019-06-15T16:12:21.264Z,49.40
2019-06-15T16:14:51.762Z,49.20
2019-06-15T16:17:22.633Z,49.20
2019-06-15T16:19:53.141Z,49.50
2019-06-15T16:22:26.165Z,49.10
2019-06-15T16:24:56.544Z,47.90
2019-06-15T16:27:27.023Z,47.00
2019-06-15T16:29:57.530Z,45.60
2019-06-15T16:32:28.006Z,44.80
2019-06-15T16:34:58.513Z,44.50
2019-06-15T16:37:28.984Z,44.80
2019-06-15T16:39:59.492Z,44.80
2019-06-15T16:42:29.962Z,44.90
2019-06-15T16:45:00.647Z,45.00
2019-06-15T16:47:32.027Z,45.10
2019-06-15T16:50:02.565Z,44.40
2019-06-15T16:52:33.129Z,44.50
2019-06-15T16:55:03.629Z,44.60
2019-06-15T16:57:34.131Z,44.90
2019-06-15T17:00:08.009Z,45.60
2019-06-15T17:02:38.535Z,46.20
2019-06-15T17:05:09.151Z,47.20
2019-06-15T17:07:39.667Z,47.70
2019-06-15T17:10:10.280Z,48.40
2019-06-15T17:12:40.799Z,48.60
2019-06-15T17:15:12.332Z,49.20
2019-06-15T17:17:42.887Z,49.90
2019-06-15T17:20:18.356Z,50.70
2019-06-15T17:22:49.013Z,51.20
2019-06-15T17:25:19.884Z,52.00
2019-06-15T17:27:50.381Z,52.60
2019-06-15T17:30:21.009Z,53.60
2019-06-15T17:32:51.578Z,54.50
2019-06-15T17:35:22.047Z,55.50
2019-06-15T17:37:52.553Z,56.60
2019-06-15T17:40:23.743Z,57.80
2019-06-15T17:42:54.445Z,58.60
2019-06-15T17:45:26.644Z,59.50
2019-06-15T17:47:57.359Z,60.60
2019-06-15T17:50:40.348Z,61.50
2019-06-15T17:53:10.852Z,62.60
2019-06-15T17:55:41.529Z,63.20
2019-06-15T17:58:12.041Z,64.00
2019-06-15T18:01:01.864Z,64.80
2019-06-15T18:03:32.377Z,65.80
2019-06-15T18:06:02.847Z,66.60
2019-06-15T18:08:33.352Z,67.20
2019-06-15T18:11:06.829Z,68.30
2019-06-15T18:13:37.554Z,69.30
2019-06-15T18:16:08.055Z,69.90
2019-06-15T18:18:38.576Z,70.40
2019-06-15T18:21:09.051Z,71.50
2019-06-15T18:23:39.561Z,72.20
2019-06-15T18:26:10.837Z,73.10
2019-06-15T18:28:41.382Z,73.90
2019-06-15T18:31:11.891Z,75.50
2019-06-15T18:33:42.361Z,75.90
2019-06-15T18:36:12.869Z,76.90
2019-06-15T18:38:43.377Z,77.60
2019-06-15T18:41:13.858Z,78.70
2019-06-15T18:43:45.897Z,79.50
2019-06-15T18:46:16.399Z,80.10
2019-06-15T18:48:47.187Z,81.60
2019-06-15T18:51:17.655Z,82.00
2019-06-15T18:53:49.450Z,82.80
2019-06-15T18:56:19.945Z,83.80
2019-06-15T18:58:50.421Z,84.70
2019-06-15T19:01:20.912Z,85.70
2019-06-15T19:03:51.451Z,86.50
2019-06-15T19:06:21.938Z,87.50
2019-06-15T19:08:52.422Z,88.10
2019-06-15T19:11:22.918Z,88.80
2019-06-15T19:13:56.177Z,89.60
2019-06-15T19:16:25.637Z,90.00
2019-06-15T19:18:56.679Z,90.30
2019-06-15T19:21:27.288Z,90.70
2019-06-15T19:23:57.867Z,91.10
2019-06-15T19:26:28.340Z,91.40
2019-06-15T19:28:58.842Z,91.60
2019-06-15T19:31:29.321Z,91.90
2019-06-15T19:34:00.490Z,92.00
2019-06-15T19:36:31.003Z,92.20
2019-06-15T19:39:01.533Z,92.40
2019-06-15T19:41:32.088Z,92.70
2019-06-15T19:44:02.775Z,92.90
2019-06-15T19:46:33.309Z,93.00
2019-06-15T19:49:06.199Z,93.10
2019-06-15T19:51:36.391Z,93.20
2019-06-15T19:54:07.149Z,93.30
2019-06-15T19:56:38.433Z,93.50
2019-06-15T19:59:09.069Z,93.60
2019-06-15T20:01:39.584Z,93.70
2019-06-15T20:04:10.915Z,93.90
2019-06-15T20:06:41.741Z,94.00
2019-06-15T20:09:13.794Z,94.00
2019-06-15T20:11:46.883Z,94.10
2019-06-15T20:14:24.483Z,94.40
2019-06-15T20:16:56.108Z,94.40
2019-06-15T20:19:29.500Z,94.60
2019-06-15T20:22:00.794Z,94.60
2019-06-15T20:24:31.063Z,94.70
2019-06-15T20:27:01.566Z,94.80
2019-06-15T20:29:32.068Z,95.00
2019-06-15T20:32:02.588Z,95.10
2019-06-15T20:34:33.099Z,95.30
2019-06-15T20:37:03.678Z,95.40
2019-06-15T20:39:36.315Z,95.60
2019-06-15T20:42:07.866Z,95.80
2019-06-15T20:44:39.230Z,96.10
2019-06-15T20:47:10.677Z,96.10
2019-06-15T20:49:41.189Z,96.10
2019-06-15T20:52:11.665Z,96.10
2019-06-15T20:54:42.185Z,96.30
2019-06-15T20:57:12.658Z,96.20
2019-06-15T20:59:43.167Z,96.40
2019-06-15T21:02:15.999Z,96.40
2019-06-15T21:04:46.124Z,96.40
2019-06-15T21:07:16.591Z,96.40
2019-06-15T21:09:47.116Z,96.40
2019-06-15T21:12:17.683Z,96.40
2019-06-15T21:14:48.173Z,96.50
2019-06-15T21:17:18.711Z,96.60
2019-06-15T21:19:49.141Z,96.60
2019-06-15T21:22:19.642Z,96.60
2019-06-15T21:24:50.116Z,96.70
2019-06-15T21:27:20.612Z,96.70
2019-06-15T21:29:51.085Z,96.80
2019-06-15T21:32:21.629Z,96.80
2019-06-15T21:34:52.897Z,96.90
2019-06-15T21:37:25.920Z,96.80
2019-06-15T21:39:56.265Z,96.80
2019-06-15T21:42:26.887Z,96.80
2019-06-15T21:44:57.366Z,96.90
2019-06-15T21:47:27.841Z,97.00
2019-06-15T21:49:58.309Z,97.00
2019-06-15T21:52:28.833Z,97.00
2019-06-15T21:54:59.311Z,97.00
2019-06-15T21:57:29.981Z,97.00
2019-06-15T22:00:00.464Z,97.10
2019-06-15T22:02:30.974Z,97.20
2019-06-15T22:05:01.457Z,97.20
2019-06-15T22:07:31.952Z,97.30
2019-06-15T22:10:02.538Z,97.50
2019-06-15T22:12:33.022Z,97.80
2019-06-15T22:15:06.752Z,97.80
2019-06-15T22:17:37.102Z,97.80
2019-06-15T22:20:08.885Z,97.90
2019-06-15T22:22:39.528Z,98.00
2019-06-15T22:25:10.440Z,98.10
2019-06-15T22:27:40.930Z,98.30
2019-06-15T22:30:12.539Z,98.50
2019-06-15T22:32:43.046Z,98.60
2019-06-15T22:35:16.366Z,98.60
2019-06-15T22:37:46.747Z,98.80
2019-06-15T22:40:19.169Z,98.80
2019-06-15T22:42:49.640Z,98.80
2019-06-15T22:45:20.140Z,98.80
2019-06-15T22:47:50.643Z,98.90
2019-06-15T22:50:21.208Z,98.90
2019-06-15T22:52:51.676Z,98.90
2019-06-15T22:55:22.358Z,98.90
2019-06-15T22:57:52.897Z,98.90
2019-06-15T23:00:23.479Z,98.80
2019-06-15T23:02:56.532Z,98.90
2019-06-15T23:05:26.355Z,98.80
2019-06-15T23:07:56.995Z,98.80
2019-06-15T23:10:27.469Z,98.80
2019-06-15T23:12:57.977Z,98.70
2019-06-15T23:15:28.478Z,98.50
2019-06-15T23:17:58.969Z,98.50
2019-06-15T23:20:29.466Z,98.40
2019-06-15T23:22:59.945Z,98.50
2019-06-15T23:25:30.439Z,98.50
2019-06-15T23:28:00.930Z,98.50
2019-06-15T23:30:31.442Z,98.50
2019-06-15T23:33:01.886Z,98.40
2019-06-15T23:35:34.059Z,98.30
2019-06-15T23:38:06.506Z,98.30
2019-06-15T23:40:36.809Z,98.40
2019-06-15T23:43:07.295Z,98.50
2019-06-15T23:45:37.819Z,98.50
2019-06-15T23:48:08.260Z,98.60
2019-06-15T23:50:38.760Z,98.70
2019-06-15T23:53:09.227Z,98.80
2019-06-15T23:55:39.726Z,98.90
2019-06-15T23:58:10.234Z,98.80
